sensor_id;sensor_type;location;lat;lon;timestamp;P1;durP1;ratioP1;P2;durP2;ratioP2
23732;SDS011;12047;53.450;-2.286;2023-02-23T00:04:08;7.68;;;2.42;;
23732;SDS011;12047;53.450;-2.286;2023-02-23T00:09:09;2.90;;;1.48;;
23732;SDS011;12047;53.450;-2.286;2023-02-23T00:14:33;7.25;;;1.52;;
23732;SDS011;12047;53.450;-2.286;2023-02-23T00:19:36;6.20;;;1.90;;
23732;SDS011;12047;53.450;-2.286;2023-02-23T00:24:37;5.13;;;1.67;;
23732;SDS011;12047;53.450;-2.286;2023-02-23T00:29:39;3.38;;;1.55;;
23732;SDS011;12047;53.450;-2.286;2023-02-23T00:34:40;3.70;;;1.23;;
23732;SDS011;12047;53.450;-2.286;2023-02-23T00:39:46;4.50;;;1.63;;
23732;SDS011;12047;53.450;-2.286;2023-02-23T00:44:59;3.83;;;0.90;;
23732;SDS011;12047;53.450;-2.286;2023-02-23T00:50:09;8.55;;;1.70;;
23732;SDS011;12047;53.450;-2.286;2023-02-23T00:55:16;7.68;;;1.23;;
23732;SDS011;12047;53.450;-2.286;2023-02-23T01:00:16;5.72;;;1.02;;
23732;SDS011;12047;53.450;-2.286;2023-02-23T01:05:24;4.85;;;1.20;;
23732;SDS011;12047;53.450;-2.286;2023-02-23T01:10:32;9.98;;;1.38;;
23732;SDS011;12047;53.450;-2.286;2023-02-23T01:15:41;6.95;;;1.38;;
23732;SDS011;12047;53.450;-2.286;2023-02-23T01:20:43;8.68;;;1.25;;
23732;SDS011;12047;53.450;-2.286;2023-02-23T01:25:54;7.82;;;1.10;;
23732;SDS011;12047;53.450;-2.286;2023-02-23T01:30:54;3.05;;;1.00;;
23732;SDS011;12047;53.450;-2.286;2023-02-23T01:35:58;5.40;;;1.33;;
23732;SDS011;12047;53.450;-2.286;2023-02-23T01:40:59;6.18;;;0.90;;
23732;SDS011;12047;53.450;-2.286;2023-02-23T01:46:00;3.83;;;1.10;;
23732;SDS011;12047;53.450;-2.286;2023-02-23T01:51:02;2.78;;;0.82;;
23732;SDS011;12047;53.450;-2.286;2023-02-23T01:56:19;2.30;;;0.65;;
23732;SDS011;12047;53.450;-2.286;2023-02-23T02:01:22;5.25;;;0.73;;
23732;SDS011;12047;53.450;-2.286;2023-02-23T02:06:33;3.88;;;0.85;;
23732;SDS011;12047;53.450;-2.286;2023-02-23T02:11:35;3.10;;;0.75;;
23732;SDS011;12047;53.450;-2.286;2023-02-23T02:32:44;8.20;;;1.80;;
23732;SDS011;12047;53.450;-2.286;2023-02-23T02:38:24;12.18;;;1.83;;
23732;SDS011;12047;53.450;-2.286;2023-02-23T02:43:54;11.25;;;2.22;;
23732;SDS011;12047;53.450;-2.286;2023-02-23T02:54:38;16.20;;;2.28;;
23732;SDS011;12047;53.450;-2.286;2023-02-23T02:59:44;12.65;;;2.78;;
23732;SDS011;12047;53.450;-2.286;2023-02-23T03:05:13;11.88;;;2.00;;
23732;SDS011;12047;53.450;-2.286;2023-02-23T03:21:50;17.52;;;2.28;;
23732;SDS011;12047;53.450;-2.286;2023-02-23T03:27:21;13.45;;;2.15;;
23732;SDS011;12047;53.450;-2.286;2023-02-23T03:32:47;17.67;;;2.53;;
23732;SDS011;12047;53.450;-2.286;2023-02-23T03:44:12;15.32;;;1.98;;
23732;SDS011;12047;53.450;-2.286;2023-02-23T03:49:40;13.90;;;2.42;;
23732;SDS011;12047;53.450;-2.286;2023-02-23T03:55:02;13.88;;;2.05;;
23732;SDS011;12047;53.450;-2.286;2023-02-23T04:00:28;12.27;;;2.20;;
23732;SDS011;12047;53.450;-2.286;2023-02-23T04:05:51;8.38;;;1.98;;
23732;SDS011;12047;53.450;-2.286;2023-02-23T04:11:29;14.80;;;2.20;;
23732;SDS011;12047;53.450;-2.286;2023-02-23T04:16:55;12.60;;;2.15;;
23732;SDS011;12047;53.450;-2.286;2023-02-23T04:21:59;16.17;;;2.42;;
23732;SDS011;12047;53.450;-2.286;2023-02-23T04:27:00;14.77;;;1.90;;
23732;SDS011;12047;53.450;-2.286;2023-02-23T04:32:03;14.00;;;2.55;;
23732;SDS011;12047;53.450;-2.286;2023-02-23T04:37:04;17.45;;;2.50;;
23732;SDS011;12047;53.450;-2.286;2023-02-23T04:42:07;15.32;;;2.20;;
23732;SDS011;12047;53.450;-2.286;2023-02-23T04:47:09;16.33;;;2.53;;
23732;SDS011;12047;53.450;-2.286;2023-02-23T04:52:10;13.80;;;3.05;;
23732;SDS011;12047;53.450;-2.286;2023-02-23T04:57:10;12.07;;;2.10;;
23732;SDS011;12047;53.450;-2.286;2023-02-23T05:02:11;10.48;;;2.20;;
23732;SDS011;12047;53.450;-2.286;2023-02-23T05:07:12;17.65;;;2.30;;
23732;SDS011;12047;53.450;-2.286;2023-02-23T05:12:12;12.20;;;2.25;;
23732;SDS011;12047;53.450;-2.286;2023-02-23T05:17:15;14.00;;;2.10;;
23732;SDS011;12047;53.450;-2.286;2023-02-23T05:22:19;15.07;;;2.30;;
23732;SDS011;12047;53.450;-2.286;2023-02-23T05:27:20;15.77;;;2.05;;
23732;SDS011;12047;53.450;-2.286;2023-02-23T05:32:20;13.65;;;1.80;;
23732;SDS011;12047;53.450;-2.286;2023-02-23T05:37:21;12.45;;;2.10;;
23732;SDS011;12047;53.450;-2.286;2023-02-23T05:42:27;14.35;;;2.97;;
23732;SDS011;12047;53.450;-2.286;2023-02-23T05:47:27;13.73;;;2.00;;
23732;SDS011;12047;53.450;-2.286;2023-02-23T05:52:40;7.28;;;2.67;;
23732;SDS011;12047;53.450;-2.286;2023-02-23T05:57:41;14.07;;;2.35;;
23732;SDS011;12047;53.450;-2.286;2023-02-23T06:02:42;15.13;;;2.47;;
23732;SDS011;12047;53.450;-2.286;2023-02-23T06:07:42;9.43;;;1.70;;
23732;SDS011;12047;53.450;-2.286;2023-02-23T06:12:43;14.02;;;1.85;;
23732;SDS011;12047;53.450;-2.286;2023-02-23T06:17:44;9.43;;;2.33;;
23732;SDS011;12047;53.450;-2.286;2023-02-23T06:22:47;10.43;;;2.05;;
23732;SDS011;12047;53.450;-2.286;2023-02-23T06:27:49;8.82;;;1.30;;
23732;SDS011;12047;53.450;-2.286;2023-02-23T06:32:50;10.40;;;1.70;;
23732;SDS011;12047;53.450;-2.286;2023-02-23T06:37:53;14.68;;;2.10;;
23732;SDS011;12047;53.450;-2.286;2023-02-23T06:43:07;12.15;;;1.70;;
23732;SDS011;12047;53.450;-2.286;2023-02-23T06:48:16;7.30;;;1.70;;
23732;SDS011;12047;53.450;-2.286;2023-02-23T06:53:52;11.02;;;1.80;;
23732;SDS011;12047;53.450;-2.286;2023-02-23T07:06:00;11.73;;;1.67;;
23732;SDS011;12047;53.450;-2.286;2023-02-23T07:11:36;12.63;;;1.90;;
23732;SDS011;12047;53.450;-2.286;2023-02-23T07:16:39;12.88;;;2.15;;
23732;SDS011;12047;53.450;-2.286;2023-02-23T07:21:40;7.22;;;1.63;;
23732;SDS011;12047;53.450;-2.286;2023-02-23T07:26:40;9.77;;;1.75;;
23732;SDS011;12047;53.450;-2.286;2023-02-23T07:31:48;17.52;;;2.03;;
23732;SDS011;12047;53.450;-2.286;2023-02-23T07:42:46;13.32;;;2.13;;
23732;SDS011;12047;53.450;-2.286;2023-02-23T07:47:46;15.13;;;2.63;;
23732;SDS011;12047;53.450;-2.286;2023-02-23T07:52:47;11.23;;;2.05;;
23732;SDS011;12047;53.450;-2.286;2023-02-23T07:57:51;11.57;;;1.75;;
23732;SDS011;12047;53.450;-2.286;2023-02-23T08:02:52;15.10;;;2.80;;
23732;SDS011;12047;53.450;-2.286;2023-02-23T08:07:53;9.13;;;1.80;;
23732;SDS011;12047;53.450;-2.286;2023-02-23T08:12:56;16.85;;;1.90;;
23732;SDS011;12047;53.450;-2.286;2023-02-23T08:17:57;22.67;;;3.38;;
23732;SDS011;12047;53.450;-2.286;2023-02-23T08:23:04;8.57;;;2.53;;
23732;SDS011;12047;53.450;-2.286;2023-02-23T08:34:02;16.67;;;2.70;;
23732;SDS011;12047;53.450;-2.286;2023-02-23T08:39:03;18.83;;;3.03;;
23732;SDS011;12047;53.450;-2.286;2023-02-23T08:44:08;9.70;;;2.55;;
23732;SDS011;12047;53.450;-2.286;2023-02-23T08:49:09;8.82;;;2.42;;
23732;SDS011;12047;53.450;-2.286;2023-02-23T08:54:10;13.73;;;2.85;;
23732;SDS011;12047;53.450;-2.286;2023-02-23T08:59:14;11.38;;;2.17;;
23732;SDS011;12047;53.450;-2.286;2023-02-23T09:04:14;13.18;;;2.25;;
23732;SDS011;12047;53.450;-2.286;2023-02-23T09:09:16;13.93;;;2.45;;
23732;SDS011;12047;53.450;-2.286;2023-02-23T09:14:16;10.07;;;1.90;;
23732;SDS011;12047;53.450;-2.286;2023-02-23T09:19:17;15.68;;;2.10;;
23732;SDS011;12047;53.450;-2.286;2023-02-23T09:24:19;18.58;;;2.75;;
23732;SDS011;12047;53.450;-2.286;2023-02-23T09:29:20;10.95;;;2.03;;
23732;SDS011;12047;53.450;-2.286;2023-02-23T09:34:24;13.10;;;2.38;;
23732;SDS011;12047;53.450;-2.286;2023-02-23T09:39:25;14.15;;;2.55;;
23732;SDS011;12047;53.450;-2.286;2023-02-23T09:50:12;18.20;;;2.38;;
23732;SDS011;12047;53.450;-2.286;2023-02-23T09:55:24;10.02;;;2.05;;
23732;SDS011;12047;53.450;-2.286;2023-02-23T10:00:26;10.38;;;1.83;;
23732;SDS011;12047;53.450;-2.286;2023-02-23T10:05:27;11.63;;;1.83;;
23732;SDS011;12047;53.450;-2.286;2023-02-23T10:10:40;12.15;;;1.98;;
23732;SDS011;12047;53.450;-2.286;2023-02-23T10:16:19;15.52;;;2.40;;
23732;SDS011;12047;53.450;-2.286;2023-02-23T10:32:23;16.25;;;2.08;;
23732;SDS011;12047;53.450;-2.286;2023-02-23T10:37:25;14.85;;;2.35;;
23732;SDS011;12047;53.450;-2.286;2023-02-23T10:42:26;15.25;;;1.70;;
23732;SDS011;12047;53.450;-2.286;2023-02-23T10:47:31;7.50;;;1.52;;
23732;SDS011;12047;53.450;-2.286;2023-02-23T10:52:39;14.20;;;1.93;;
23732;SDS011;12047;53.450;-2.286;2023-02-23T10:57:42;8.88;;;1.73;;
23732;SDS011;12047;53.450;-2.286;2023-02-23T11:02:43;9.27;;;1.90;;
23732;SDS011;12047;53.450;-2.286;2023-02-23T11:07:46;11.63;;;1.73;;
23732;SDS011;12047;53.450;-2.286;2023-02-23T11:18:30;11.52;;;2.25;;
23732;SDS011;12047;53.450;-2.286;2023-02-23T11:23:33;12.75;;;1.65;;
23732;SDS011;12047;53.450;-2.286;2023-02-23T11:28:47;9.55;;;1.88;;
23732;SDS011;12047;53.450;-2.286;2023-02-23T11:34:02;9.98;;;1.45;;
23732;SDS011;12047;53.450;-2.286;2023-02-23T11:39:17;18.10;;;2.45;;
23732;SDS011;12047;53.450;-2.286;2023-02-23T11:44:21;12.63;;;1.95;;
23732;SDS011;12047;53.450;-2.286;2023-02-23T11:49:25;10.57;;;1.73;;
23732;SDS011;12047;53.450;-2.286;2023-02-23T11:54:33;11.00;;;2.22;;
23732;SDS011;12047;53.450;-2.286;2023-02-23T11:59:36;9.73;;;1.80;;
23732;SDS011;12047;53.450;-2.286;2023-02-23T12:04:40;13.75;;;2.08;;
23732;SDS011;12047;53.450;-2.286;2023-02-23T12:09:46;11.63;;;2.08;;
23732;SDS011;12047;53.450;-2.286;2023-02-23T12:14:52;9.65;;;2.00;;
23732;SDS011;12047;53.450;-2.286;2023-02-23T12:20:13;9.13;;;1.80;;
23732;SDS011;12047;53.450;-2.286;2023-02-23T12:25:23;7.97;;;2.05;;
23732;SDS011;12047;53.450;-2.286;2023-02-23T12:35:45;10.57;;;2.35;;
23732;SDS011;12047;53.450;-2.286;2023-02-23T12:41:02;15.07;;;1.65;;
23732;SDS011;12047;53.450;-2.286;2023-02-23T12:46:13;8.50;;;1.90;;
23732;SDS011;12047;53.450;-2.286;2023-02-23T13:02:00;9.55;;;1.80;;
23732;SDS011;12047;53.450;-2.286;2023-02-23T13:17:53;9.18;;;1.45;;
23732;SDS011;12047;53.450;-2.286;2023-02-23T13:34:00;6.97;;;1.50;;
23732;SDS011;12047;53.450;-2.286;2023-02-23T13:56:00;7.18;;;1.67;;
23732;SDS011;12047;53.450;-2.286;2023-02-23T14:01:13;8.80;;;1.60;;
23732;SDS011;12047;53.450;-2.286;2023-02-23T14:06:16;8.65;;;1.60;;
23732;SDS011;12047;53.450;-2.286;2023-02-23T14:11:36;9.70;;;1.52;;
23732;SDS011;12047;53.450;-2.286;2023-02-23T15:09:04;8.13;;;1.45;;
23732;SDS011;12047;53.450;-2.286;2023-02-23T15:14:29;7.18;;;1.60;;
23732;SDS011;12047;53.450;-2.286;2023-02-23T15:26:26;10.75;;;1.80;;
23732;SDS011;12047;53.450;-2.286;2023-02-23T15:31:32;8.68;;;2.10;;
23732;SDS011;12047;53.450;-2.286;2023-02-23T15:42:14;10.55;;;2.00;;
23732;SDS011;12047;53.450;-2.286;2023-02-23T15:47:21;12.30;;;1.75;;
23732;SDS011;12047;53.450;-2.286;2023-02-23T15:52:27;12.20;;;2.17;;
23732;SDS011;12047;53.450;-2.286;2023-02-23T15:57:40;9.95;;;1.80;;
23732;SDS011;12047;53.450;-2.286;2023-02-23T16:02:54;9.48;;;1.40;;
23732;SDS011;12047;53.450;-2.286;2023-02-23T16:08:00;8.52;;;1.80;;
23732;SDS011;12047;53.450;-2.286;2023-02-23T16:13:05;5.35;;;1.55;;
23732;SDS011;12047;53.450;-2.286;2023-02-23T16:18:20;5.78;;;1.48;;
23732;SDS011;12047;53.450;-2.286;2023-02-23T16:28:50;14.70;;;3.90;;
23732;SDS011;12047;53.450;-2.286;2023-02-23T16:33:55;5.57;;;1.85;;
23732;SDS011;12047;53.450;-2.286;2023-02-23T16:39:05;12.80;;;2.17;;
23732;SDS011;12047;53.450;-2.286;2023-02-23T16:44:11;10.60;;;2.13;;
23732;SDS011;12047;53.450;-2.286;2023-02-23T16:49:19;16.90;;;2.67;;
23732;SDS011;12047;53.450;-2.286;2023-02-23T16:54:22;10.70;;;2.65;;
23732;SDS011;12047;53.450;-2.286;2023-02-23T16:59:23;13.77;;;3.55;;
23732;SDS011;12047;53.450;-2.286;2023-02-23T17:04:23;21.83;;;2.88;;
23732;SDS011;12047;53.450;-2.286;2023-02-23T17:09:24;12.35;;;4.10;;
23732;SDS011;12047;53.450;-2.286;2023-02-23T17:14:25;11.60;;;2.40;;
23732;SDS011;12047;53.450;-2.286;2023-02-23T17:19:28;13.77;;;2.67;;
23732;SDS011;12047;53.450;-2.286;2023-02-23T17:24:29;14.70;;;3.15;;
23732;SDS011;12047;53.450;-2.286;2023-02-23T17:29:29;13.10;;;2.50;;
23732;SDS011;12047;53.450;-2.286;2023-02-23T17:34:30;12.23;;;3.08;;
23732;SDS011;12047;53.450;-2.286;2023-02-23T17:39:31;11.55;;;2.95;;
23732;SDS011;12047;53.450;-2.286;2023-02-23T17:44:31;14.63;;;3.03;;
23732;SDS011;12047;53.450;-2.286;2023-02-23T17:49:32;9.10;;;3.30;;
23732;SDS011;12047;53.450;-2.286;2023-02-23T17:54:33;16.30;;;3.40;;
23732;SDS011;12047;53.450;-2.286;2023-02-23T17:59:36;16.90;;;3.03;;
23732;SDS011;12047;53.450;-2.286;2023-02-23T18:04:36;11.88;;;2.97;;
23732;SDS011;12047;53.450;-2.286;2023-02-23T18:09:37;14.30;;;2.33;;
23732;SDS011;12047;53.450;-2.286;2023-02-23T18:14:38;17.33;;;3.95;;
23732;SDS011;12047;53.450;-2.286;2023-02-23T18:19:39;11.85;;;2.60;;
23732;SDS011;12047;53.450;-2.286;2023-02-23T18:24:39;14.27;;;2.90;;
23732;SDS011;12047;53.450;-2.286;2023-02-23T18:29:41;11.55;;;2.97;;
23732;SDS011;12047;53.450;-2.286;2023-02-23T18:34:44;15.63;;;3.38;;
23732;SDS011;12047;53.450;-2.286;2023-02-23T18:39:49;15.30;;;4.13;;
23732;SDS011;12047;53.450;-2.286;2023-02-23T18:44:51;17.73;;;5.53;;
23732;SDS011;12047;53.450;-2.286;2023-02-23T18:49:58;20.70;;;7.72;;
23732;SDS011;12047;53.450;-2.286;2023-02-23T18:55:00;27.38;;;17.15;;
23732;SDS011;12047;53.450;-2.286;2023-02-23T19:00:02;20.27;;;11.00;;
23732;SDS011;12047;53.450;-2.286;2023-02-23T19:05:06;15.70;;;4.55;;
23732;SDS011;12047;53.450;-2.286;2023-02-23T19:10:08;13.73;;;4.22;;
23732;SDS011;12047;53.450;-2.286;2023-02-23T19:15:13;25.45;;;12.90;;
23732;SDS011;12047;53.450;-2.286;2023-02-23T19:20:14;27.23;;;11.65;;
23732;SDS011;12047;53.450;-2.286;2023-02-23T19:25:18;48.80;;;32.17;;
23732;SDS011;12047;53.450;-2.286;2023-02-23T19:30:41;43.28;;;23.90;;
23732;SDS011;12047;53.450;-2.286;2023-02-23T19:36:08;25.13;;;9.90;;
23732;SDS011;12047;53.450;-2.286;2023-02-23T19:41:12;14.70;;;4.38;;
23732;SDS011;12047;53.450;-2.286;2023-02-23T19:51:51;17.75;;;6.15;;
23732;SDS011;12047;53.450;-2.286;2023-02-23T19:56:52;14.35;;;5.32;;
23732;SDS011;12047;53.450;-2.286;2023-02-23T20:01:53;17.98;;;6.38;;
23732;SDS011;12047;53.450;-2.286;2023-02-23T20:07:19;25.40;;;5.72;;
23732;SDS011;12047;53.450;-2.286;2023-02-23T20:12:26;14.75;;;5.68;;
23732;SDS011;12047;53.450;-2.286;2023-02-23T20:17:35;15.40;;;5.40;;
23732;SDS011;12047;53.450;-2.286;2023-02-23T20:22:38;15.13;;;4.95;;
23732;SDS011;12047;53.450;-2.286;2023-02-23T20:27:46;14.73;;;4.82;;
23732;SDS011;12047;53.450;-2.286;2023-02-23T20:33:02;18.90;;;5.15;;
23732;SDS011;12047;53.450;-2.286;2023-02-23T20:38:09;18.95;;;4.90;;
23732;SDS011;12047;53.450;-2.286;2023-02-23T20:43:10;14.35;;;4.88;;
23732;SDS011;12047;53.450;-2.286;2023-02-23T20:48:14;15.65;;;4.90;;
23732;SDS011;12047;53.450;-2.286;2023-02-23T20:53:14;15.50;;;5.53;;
23732;SDS011;12047;53.450;-2.286;2023-02-23T20:58:20;12.88;;;3.80;;
23732;SDS011;12047;53.450;-2.286;2023-02-23T21:03:27;20.58;;;4.57;;
23732;SDS011;12047;53.450;-2.286;2023-02-23T21:08:29;15.45;;;5.32;;
23732;SDS011;12047;53.450;-2.286;2023-02-23T21:13:31;16.58;;;5.03;;
23732;SDS011;12047;53.450;-2.286;2023-02-23T21:18:37;16.85;;;5.32;;
23732;SDS011;12047;53.450;-2.286;2023-02-23T21:23:59;20.20;;;4.68;;
23732;SDS011;12047;53.450;-2.286;2023-02-23T21:29:25;20.23;;;4.80;;
23732;SDS011;12047;53.450;-2.286;2023-02-23T21:34:28;16.70;;;5.80;;
23732;SDS011;12047;53.450;-2.286;2023-02-23T21:39:32;16.80;;;6.00;;
23732;SDS011;12047;53.450;-2.286;2023-02-23T21:44:33;18.80;;;7.00;;
23732;SDS011;12047;53.450;-2.286;2023-02-23T21:49:33;25.50;;;6.28;;
23732;SDS011;12047;53.450;-2.286;2023-02-23T21:54:35;23.15;;;6.25;;
23732;SDS011;12047;53.450;-2.286;2023-02-23T22:05:12;15.88;;;6.00;;
23732;SDS011;12047;53.450;-2.286;2023-02-23T22:10:32;22.02;;;8.10;;
23732;SDS011;12047;53.450;-2.286;2023-02-23T22:21:37;20.00;;;6.50;;
23732;SDS011;12047;53.450;-2.286;2023-02-23T22:26:48;26.40;;;8.35;;
23732;SDS011;12047;53.450;-2.286;2023-02-23T22:31:55;16.92;;;5.97;;
23732;SDS011;12047;53.450;-2.286;2023-02-23T22:36:59;17.73;;;5.57;;
23732;SDS011;12047;53.450;-2.286;2023-02-23T22:42:00;19.90;;;5.20;;
23732;SDS011;12047;53.450;-2.286;2023-02-23T22:47:08;20.67;;;4.75;;
23732;SDS011;12047;53.450;-2.286;2023-02-23T22:52:08;13.70;;;4.38;;
23732;SDS011;12047;53.450;-2.286;2023-02-23T22:57:09;17.17;;;4.82;;
23732;SDS011;12047;53.450;-2.286;2023-02-23T23:02:13;16.63;;;5.50;;
23732;SDS011;12047;53.450;-2.286;2023-02-23T23:07:33;21.83;;;4.15;;
23732;SDS011;12047;53.450;-2.286;2023-02-23T23:12:54;21.73;;;4.43;;
23732;SDS011;12047;53.450;-2.286;2023-02-23T23:23:57;21.58;;;6.70;;
23732;SDS011;12047;53.450;-2.286;2023-02-23T23:29:18;15.65;;;5.00;;
23732;SDS011;12047;53.450;-2.286;2023-02-23T23:40:31;15.40;;;4.85;;
23732;SDS011;12047;53.450;-2.286;2023-02-23T23:52:04;17.67;;;5.45;;
